createdAt,value
2023-03-17T00:01:54.835Z,23.30
2023-03-17T00:05:03.862Z,22.73
2023-03-17T00:08:12.248Z,22.70
2023-03-17T00:11:17.440Z,43.17
2023-03-17T00:14:21.843Z,39.10
2023-03-17T00:17:25.778Z,25.05
2023-03-17T00:20:41.618Z,31.20
2023-03-17T00:23:48.266Z,50.45
2023-03-17T00:27:01.651Z,73.20
2023-03-17T00:30:06.230Z,65.05
2023-03-17T00:33:10.631Z,49.63
2023-03-17T00:36:24.771Z,41.15
2023-03-17T00:39:28.447Z,62.33
2023-03-17T00:42:33.109Z,65.07
2023-03-17T00:45:37.135Z,48.67
2023-03-17T00:48:42.007Z,45.17
2023-03-17T00:51:50.180Z,56.10
2023-03-17T00:54:53.811Z,37.58
2023-03-17T00:57:59.985Z,54.55
2023-03-17T01:01:03.463Z,69.07
2023-03-17T01:04:17.173Z,130.32
2023-03-17T01:07:32.556Z,189.18
2023-03-17T01:10:41.287Z,147.45
2023-03-17T01:13:55.452Z,90.43
2023-03-17T01:17:00.274Z,113.63
2023-03-17T01:20:17.677Z,143.80
2023-03-17T01:23:22.509Z,133.63
2023-03-17T01:26:26.286Z,146.02
2023-03-17T01:29:30.175Z,130.50
2023-03-17T01:32:40.098Z,84.93
2023-03-17T01:35:51.519Z,72.53
2023-03-17T01:39:05.679Z,84.35
2023-03-17T01:42:09.319Z,124.65
2023-03-17T01:45:31.945Z,96.78
2023-03-17T01:48:53.449Z,123.63
2023-03-17T01:52:08.181Z,103.57
2023-03-17T01:55:15.177Z,106.97
2023-03-17T01:58:19.987Z,101.88
2023-03-17T02:01:27.008Z,152.57
2023-03-17T02:04:31.739Z,175.48
2023-03-17T02:07:46.262Z,143.13
2023-03-17T02:10:52.891Z,111.30
2023-03-17T02:13:56.862Z,86.75
2023-03-17T02:17:01.203Z,76.00
2023-03-17T02:20:19.387Z,71.82
2023-03-17T02:23:26.738Z,45.35
2023-03-17T02:26:32.075Z,36.97
2023-03-17T02:29:38.200Z,33.00
2023-03-17T02:32:49.749Z,30.48
2023-03-17T02:35:53.402Z,29.98
2023-03-17T02:38:58.244Z,25.83
2023-03-17T02:42:06.336Z,24.38
2023-03-17T02:45:12.057Z,25.23
2023-03-17T02:48:24.553Z,24.08
2023-03-17T02:51:28.428Z,25.23
2023-03-17T02:54:32.610Z,28.75
2023-03-17T02:57:36.003Z,28.35
2023-03-17T03:00:41.005Z,31.58
2023-03-17T03:03:44.637Z,35.90
2023-03-17T03:06:51.038Z,38.03
2023-03-17T03:09:55.036Z,71.65
2023-03-17T03:12:58.801Z,40.60
2023-03-17T03:16:07.378Z,42.08
2023-03-17T03:19:11.413Z,36.95
2023-03-17T03:22:25.504Z,38.53
2023-03-17T03:25:33.849Z,38.38
2023-03-17T03:28:37.629Z,33.58
2023-03-17T03:31:42.146Z,32.53
2023-03-17T03:34:55.469Z,31.08
2023-03-17T03:38:03.790Z,28.40
2023-03-17T03:41:07.977Z,27.50
2023-03-17T03:44:11.782Z,33.65
2023-03-17T03:47:25.458Z,27.83
2023-03-17T03:50:29.419Z,24.65
2023-03-17T03:53:33.356Z,33.72
2023-03-17T03:56:42.507Z,35.15
2023-03-17T03:59:46.447Z,27.80
2023-03-17T04:03:00.670Z,23.77
2023-03-17T04:06:04.959Z,21.73
2023-03-17T04:09:16.491Z,18.02
2023-03-17T04:12:20.035Z,19.35
2023-03-17T04:15:23.816Z,19.27
2023-03-17T04:18:27.932Z,26.02
2023-03-17T04:21:31.443Z,20.77
2023-03-17T04:24:35.437Z,21.63
2023-03-17T04:27:39.237Z,18.67
2023-03-17T04:30:43.190Z,18.73
2023-03-17T04:33:46.880Z,18.35
2023-03-17T04:36:50.519Z,19.00
2023-03-17T04:39:56.264Z,19.08
2023-03-17T04:43:01.835Z,18.88
2023-03-17T04:46:07.111Z,20.90
2023-03-17T04:49:12.957Z,22.90
2023-03-17T04:52:21.865Z,20.20
2023-03-17T04:55:25.520Z,19.55
2023-03-17T04:58:31.159Z,20.20
2023-03-17T05:01:35.749Z,19.90
2023-03-17T05:04:48.241Z,22.80
2023-03-17T05:08:02.340Z,28.38
2023-03-17T05:11:07.561Z,22.17
2023-03-17T05:14:11.245Z,21.25
2023-03-17T05:17:17.105Z,21.10
2023-03-17T05:20:20.489Z,22.50
2023-03-17T05:23:33.781Z,22.77
2023-03-17T05:26:37.612Z,22.13
2023-03-17T05:29:41.937Z,20.55
2023-03-17T05:32:46.238Z,21.20
2023-03-17T05:35:49.891Z,20.70
2023-03-17T05:38:53.812Z,20.13
2023-03-17T05:41:57.679Z,18.10
2023-03-17T05:45:01.526Z,19.30
2023-03-17T05:48:12.738Z,18.67
2023-03-17T05:51:16.590Z,21.15
2023-03-17T05:54:20.252Z,21.30
2023-03-17T05:57:24.663Z,21.00
2023-03-17T06:00:29.964Z,21.90
2023-03-17T06:03:33.853Z,21.38
2023-03-17T06:06:37.320Z,22.40
2023-03-17T06:09:42.074Z,23.05
2023-03-17T06:12:45.827Z,23.67
2023-03-17T06:15:54.661Z,25.35
2023-03-17T06:19:00.928Z,25.70
2023-03-17T06:22:15.429Z,25.58
2023-03-17T06:25:19.384Z,26.95
2023-03-17T06:28:29.677Z,28.25
2023-03-17T06:31:33.228Z,27.48
2023-03-17T06:34:37.164Z,29.80
2023-03-17T06:37:40.497Z,25.55
2023-03-17T06:40:44.860Z,26.17
2023-03-17T06:43:48.252Z,25.08
2023-03-17T06:47:01.902Z,22.80
2023-03-17T06:50:18.050Z,23.23
2023-03-17T06:53:25.226Z,23.50
2023-03-17T06:56:30.745Z,22.45
2023-03-17T06:59:35.851Z,22.90
2023-03-17T07:02:50.031Z,20.25
2023-03-17T07:05:53.895Z,18.25
2023-03-17T07:08:59.396Z,17.85
2023-03-17T07:12:07.635Z,18.10
2023-03-17T07:15:15.902Z,17.38
2023-03-17T07:18:20.190Z,18.52
2023-03-17T07:21:25.059Z,19.27
2023-03-17T07:24:38.515Z,19.55
2023-03-17T07:27:42.531Z,15.77
2023-03-17T07:30:51.524Z,15.43
2023-03-17T07:33:57.865Z,16.13
2023-03-17T07:37:12.654Z,17.17
2023-03-17T07:40:18.899Z,15.45
2023-03-17T07:43:23.020Z,14.55
2023-03-17T07:46:31.281Z,13.27
2023-03-17T07:49:41.683Z,12.60
2023-03-17T07:52:45.646Z,12.38
2023-03-17T07:55:49.628Z,11.85
2023-03-17T07:58:53.480Z,12.93
2023-03-17T08:01:58.540Z,13.18
2023-03-17T08:05:04.033Z,14.13
2023-03-17T08:08:07.420Z,15.05
2023-03-17T08:11:10.853Z,14.77
2023-03-17T08:14:14.419Z,10.70
2023-03-17T08:17:28.132Z,11.63
2023-03-17T08:20:35.720Z,9.73
2023-03-17T08:23:39.477Z,10.25
2023-03-17T08:26:43.674Z,10.48
2023-03-17T08:29:47.883Z,10.20
2023-03-17T08:33:02.150Z,11.65
2023-03-17T08:36:13.222Z,12.88
2023-03-17T08:39:16.783Z,14.85
2023-03-17T08:42:20.435Z,15.02
2023-03-17T08:45:29.661Z,13.75
2023-03-17T08:48:34.027Z,14.95
2023-03-17T08:51:43.182Z,15.25
2023-03-17T08:54:47.606Z,14.38
2023-03-17T08:57:53.390Z,13.02
2023-03-17T09:01:01.547Z,13.15
2023-03-17T09:04:04.955Z,11.37
2023-03-17T09:07:09.698Z,11.30
2023-03-17T09:10:15.751Z,11.55
2023-03-17T09:13:20.359Z,10.80
2023-03-17T09:16:24.562Z,9.70
2023-03-17T09:19:27.978Z,10.18
2023-03-17T09:22:33.851Z,11.02
2023-03-17T09:25:40.697Z,11.73
2023-03-17T09:28:44.047Z,11.45
2023-03-17T09:31:48.910Z,10.70
2023-03-17T09:34:53.961Z,11.50
2023-03-17T09:37:57.718Z,13.48
2023-03-17T09:41:08.277Z,12.27
2023-03-17T09:44:24.480Z,13.80
2023-03-17T09:47:47.492Z,14.40
2023-03-17T09:50:58.015Z,17.73
2023-03-17T09:54:07.080Z,17.67
2023-03-17T10:01:05.761Z,17.67
2023-03-17T10:04:18.676Z,17.25
2023-03-17T10:07:41.502Z,18.23
2023-03-17T10:11:15.326Z,18.77
2023-03-17T10:14:21.961Z,17.27
2023-03-17T10:17:39.921Z,15.50
2023-03-17T10:20:58.083Z,17.23
2023-03-17T10:24:03.839Z,18.37
2023-03-17T10:27:08.538Z,17.73
2023-03-17T10:30:22.590Z,18.15
2023-03-17T10:33:27.061Z,18.88
2023-03-17T10:36:38.930Z,19.55
2023-03-17T10:39:50.736Z,20.05
2023-03-17T10:43:10.696Z,19.65
2023-03-17T10:46:22.871Z,18.33
2023-03-17T10:49:27.155Z,18.05
2023-03-17T10:52:31.956Z,19.15
2023-03-17T10:55:38.121Z,18.47
2023-03-17T10:58:47.460Z,18.25
2023-03-17T11:02:02.594Z,19.73
2023-03-17T11:05:09.877Z,19.08
2023-03-17T11:08:18.582Z,18.57
2023-03-17T11:11:22.625Z,16.23
2023-03-17T11:14:29.747Z,14.73
2023-03-17T11:17:49.214Z,17.63
2023-03-17T11:20:59.071Z,18.33
2023-03-17T11:24:02.653Z,18.30
2023-03-17T11:27:29.097Z,18.55
2023-03-17T11:30:37.593Z,17.08
2023-03-17T11:33:40.999Z,16.95
2023-03-17T11:36:59.713Z,16.38
2023-03-17T11:40:14.980Z,16.65
2023-03-17T11:43:37.577Z,16.27
2023-03-17T11:46:47.263Z,16.30
2023-03-17T11:50:04.616Z,16.77
2023-03-17T11:53:08.723Z,15.90
2023-03-17T11:56:24.856Z,15.90
2023-03-17T11:59:46.290Z,14.77
2023-03-17T12:03:01.532Z,16.27
2023-03-17T12:06:18.416Z,18.42
2023-03-17T12:09:26.335Z,17.88
2023-03-17T12:12:43.207Z,18.70
2023-03-17T12:15:49.230Z,19.17
2023-03-17T12:18:58.465Z,18.10
2023-03-17T12:22:04.509Z,21.20
2023-03-17T12:25:18.439Z,21.20
2023-03-17T12:28:36.315Z,21.05
2023-03-17T12:31:45.026Z,21.67
2023-03-17T12:37:52.128Z,23.17
2023-03-17T12:41:15.764Z,28.15
2023-03-17T12:44:39.669Z,23.58
2023-03-17T12:47:49.661Z,26.33
2023-03-17T12:51:09.423Z,30.02
2023-03-17T12:54:21.995Z,33.40
2023-03-17T12:57:30.318Z,31.55
2023-03-17T13:00:58.482Z,33.83
2023-03-17T13:04:14.492Z,48.65
2023-03-17T13:07:32.296Z,33.55
2023-03-17T13:10:41.186Z,38.45
2023-03-17T13:13:55.899Z,97.35
2023-03-17T13:17:27.509Z,71.18
2023-03-17T13:20:42.064Z,69.55
2023-03-17T13:27:31.558Z,39.33
2023-03-17T13:31:04.374Z,45.05
2023-03-17T13:34:13.487Z,44.00
2023-03-17T13:37:39.957Z,43.83
2023-03-17T13:41:03.234Z,40.42
2023-03-17T13:44:15.831Z,46.38
2023-03-17T13:47:27.828Z,38.00
2023-03-17T13:50:33.052Z,38.88
2023-03-17T13:53:45.034Z,37.30
2023-03-17T13:56:51.080Z,36.85
2023-03-17T14:00:02.332Z,37.80
2023-03-17T14:03:13.683Z,40.45
2023-03-17T14:06:19.251Z,40.45
2023-03-17T14:09:35.665Z,42.60
2023-03-17T14:12:43.319Z,41.53
2023-03-17T14:16:07.283Z,70.53
2023-03-17T14:19:31.574Z,45.75
2023-03-17T14:22:42.540Z,41.92
2023-03-17T14:25:47.166Z,75.75
2023-03-17T14:28:50.897Z,42.55
2023-03-17T14:32:05.886Z,33.47
2023-03-17T14:35:13.878Z,32.92
2023-03-17T14:38:26.668Z,33.33
2023-03-17T14:41:40.172Z,37.80
2023-03-17T14:44:48.365Z,40.72
2023-03-17T14:47:52.287Z,45.20
2023-03-17T14:51:15.048Z,44.88
2023-03-17T14:54:23.351Z,49.30
2023-03-17T14:57:30.684Z,53.95
2023-03-17T15:00:37.420Z,56.72
2023-03-17T15:03:58.250Z,58.90
2023-03-17T15:07:09.582Z,62.38
2023-03-17T15:10:17.470Z,60.45
2023-03-17T15:16:30.391Z,52.08
2023-03-17T15:19:41.416Z,45.60
2023-03-17T15:22:57.844Z,41.63
2023-03-17T15:26:03.799Z,41.83
2023-03-17T15:29:07.663Z,38.80
2023-03-17T15:32:13.045Z,42.60
2023-03-17T15:35:16.737Z,42.60
2023-03-17T15:38:21.965Z,44.53
2023-03-17T15:41:30.997Z,51.67
2023-03-17T15:44:34.890Z,50.97
2023-03-17T15:47:40.433Z,47.40
2023-03-17T15:50:45.526Z,43.53
2023-03-17T15:53:49.683Z,42.90
2023-03-17T15:56:53.486Z,44.80
2023-03-17T16:00:06.936Z,43.28
2023-03-17T16:03:31.769Z,46.65
2023-03-17T16:06:36.162Z,47.88
2023-03-17T16:09:39.756Z,46.90
2023-03-17T16:12:53.989Z,46.17
2023-03-17T16:16:05.928Z,45.10
2023-03-17T16:19:21.577Z,35.70
2023-03-17T16:22:43.617Z,31.42
2023-03-17T16:26:13.852Z,33.63
2023-03-17T16:29:21.493Z,36.25
2023-03-17T16:32:28.065Z,41.95
2023-03-17T16:35:32.089Z,43.80
2023-03-17T16:38:35.765Z,44.42
2023-03-17T16:41:39.533Z,42.88
2023-03-17T16:44:42.995Z,43.97
2023-03-17T16:47:46.382Z,45.72
2023-03-17T16:50:51.444Z,46.45
2023-03-17T16:53:54.843Z,45.13
2023-03-17T16:57:10.505Z,45.65
2023-03-17T17:00:20.621Z,42.53
2023-03-17T17:03:24.351Z,45.05
2023-03-17T17:06:27.971Z,43.10
2023-03-17T17:09:31.958Z,40.72
2023-03-17T17:12:35.318Z,43.53
2023-03-17T17:15:39.331Z,41.88
2023-03-17T17:18:42.616Z,41.58
2023-03-17T17:21:51.173Z,41.15
2023-03-17T17:24:54.581Z,39.33
2023-03-17T17:27:58.417Z,35.97
2023-03-17T17:31:02.378Z,36.58
2023-03-17T17:34:06.303Z,33.03
2023-03-17T17:37:11.116Z,30.90
2023-03-17T17:40:25.208Z,27.73
2023-03-17T17:43:29.919Z,26.33
2023-03-17T17:46:33.807Z,22.63
2023-03-17T17:49:49.896Z,23.52
2023-03-17T17:52:54.102Z,23.27
2023-03-17T17:55:58.345Z,21.02
2023-03-17T17:59:02.340Z,21.08
2023-03-17T18:02:06.185Z,21.23
2023-03-17T18:05:10.411Z,19.40
2023-03-17T18:08:15.102Z,20.85
2023-03-17T18:11:18.731Z,19.50
2023-03-17T18:14:22.962Z,20.20
2023-03-17T18:17:26.899Z,20.75
2023-03-17T18:20:31.775Z,21.13
2023-03-17T18:23:39.421Z,19.80
2023-03-17T18:26:42.765Z,18.50
2023-03-17T18:29:47.692Z,18.00
2023-03-17T18:32:52.440Z,18.02
2023-03-17T18:35:56.368Z,17.93
2023-03-17T18:39:02.577Z,16.48
2023-03-17T18:42:06.152Z,16.95
2023-03-17T18:45:10.339Z,16.75
2023-03-17T18:48:13.747Z,17.35
2023-03-17T18:51:17.179Z,17.40
2023-03-17T18:54:20.942Z,18.15
2023-03-17T18:57:24.530Z,17.58
2023-03-17T19:00:28.413Z,18.48
2023-03-17T19:03:32.793Z,17.65
2023-03-17T19:06:45.818Z,17.13
2023-03-17T19:09:56.540Z,16.52
2023-03-17T19:13:05.601Z,16.67
2023-03-17T19:16:12.615Z,16.38
2023-03-17T19:19:16.127Z,17.20
2023-03-17T19:22:19.765Z,16.42
2023-03-17T19:25:28.142Z,17.00
2023-03-17T19:28:41.453Z,17.33
2023-03-17T19:31:49.935Z,17.95
2023-03-17T19:35:12.042Z,16.84
2023-03-17T19:38:27.464Z,17.33
2023-03-17T19:41:36.462Z,15.45
2023-03-17T19:44:40.609Z,16.02
2023-03-17T19:47:44.120Z,15.80
2023-03-17T19:50:52.689Z,14.75
2023-03-17T19:54:06.558Z,15.60
2023-03-17T19:57:10.259Z,14.35
2023-03-17T20:00:14.523Z,14.23
2023-03-17T20:03:26.301Z,13.68
2023-03-17T20:06:40.224Z,13.85
2023-03-17T20:09:54.512Z,14.75
2023-03-17T20:12:57.783Z,14.30
2023-03-17T20:16:02.543Z,14.15
2023-03-17T20:19:05.938Z,15.07
2023-03-17T20:22:09.538Z,15.52
2023-03-17T20:25:13.388Z,15.25
2023-03-17T20:28:17.254Z,15.63
2023-03-17T20:31:22.028Z,15.15
2023-03-17T20:34:32.302Z,15.98
2023-03-17T20:37:40.909Z,15.30
2023-03-17T20:40:44.379Z,15.75
2023-03-17T20:43:47.979Z,15.30
2023-03-17T20:46:51.547Z,15.48
2023-03-17T20:49:58.265Z,15.15
2023-03-17T20:53:02.148Z,13.90
2023-03-17T20:56:05.976Z,14.63
2023-03-17T20:59:11.700Z,14.38
2023-03-17T21:02:17.345Z,13.82
2023-03-17T21:05:23.517Z,14.23
2023-03-17T21:08:27.097Z,13.73
2023-03-17T21:11:31.120Z,13.60
2023-03-17T21:14:39.977Z,14.68
2023-03-17T21:17:44.586Z,13.10
2023-03-17T21:20:57.817Z,13.20
2023-03-17T21:24:02.542Z,13.32
2023-03-17T21:27:08.096Z,13.40
2023-03-17T21:33:18.215Z,13.55
2023-03-17T21:36:22.397Z,13.40
2023-03-17T21:39:29.401Z,13.15
2023-03-17T21:42:33.940Z,13.57
2023-03-17T21:45:38.097Z,14.77
2023-03-17T21:48:42.294Z,13.02
2023-03-17T21:51:51.836Z,14.38
2023-03-17T21:54:55.202Z,13.15
2023-03-17T21:57:58.524Z,14.00
2023-03-17T22:01:02.138Z,14.48
2023-03-17T22:04:05.768Z,14.30
2023-03-17T22:07:09.312Z,14.15
2023-03-17T22:13:25.750Z,13.57
2023-03-17T22:16:40.262Z,13.07
2023-03-17T22:19:44.523Z,13.00
2023-03-17T22:22:53.793Z,13.23
2023-03-17T22:26:02.855Z,13.50
2023-03-17T22:29:11.877Z,12.65
2023-03-17T22:32:15.376Z,13.40
2023-03-17T22:35:25.515Z,13.13
2023-03-17T22:38:37.049Z,13.73
2023-03-17T22:41:43.066Z,12.43
2023-03-17T22:44:46.788Z,13.05
2023-03-17T22:47:56.555Z,13.35
2023-03-17T22:51:05.386Z,12.90
2023-03-17T22:54:11.667Z,13.00
2023-03-17T22:57:15.452Z,12.45
2023-03-17T23:00:20.114Z,12.00
2023-03-17T23:03:25.097Z,12.27
2023-03-17T23:06:30.312Z,12.43
2023-03-17T23:09:33.984Z,12.70
2023-03-17T23:12:48.476Z,12.07
2023-03-17T23:15:52.103Z,12.05
2023-03-17T23:18:56.063Z,13.07
2023-03-17T23:21:59.598Z,13.00
2023-03-17T23:25:09.029Z,11.85
2023-03-17T23:28:12.731Z,11.93
2023-03-17T23:31:19.732Z,12.25
2023-03-17T23:34:33.516Z,12.73
2023-03-17T23:37:37.780Z,12.93
2023-03-17T23:40:41.718Z,12.88
2023-03-17T23:43:47.157Z,13.57
2023-03-17T23:47:00.692Z,14.02
2023-03-17T23:50:04.261Z,13.93
2023-03-17T23:53:07.719Z,14.48
2023-03-17T23:56:11.823Z,14.57
2023-03-17T23:59:15.520Z,14.13
